createdAt,value
2024-01-15T00:03:12.788Z,69.15
2024-01-15T00:08:14.955Z,66.88
2024-01-15T00:13:17.209Z,65.55
2024-01-15T00:18:19.628Z,89.72
2024-01-15T00:23:22.112Z,91.07
2024-01-15T00:28:24.314Z,75.53
2024-01-15T00:33:26.729Z,78.80
2024-01-15T00:38:28.950Z,97.28
2024-01-15T00:43:31.710Z,107.30
2024-01-15T00:48:34.707Z,91.22
2024-01-15T00:53:37.161Z,126.05
2024-01-15T00:58:39.377Z,142.75
2024-01-15T01:03:41.843Z,134.32
2024-01-15T01:08:44.133Z,124.70
2024-01-15T01:13:46.415Z,120.43
2024-01-15T01:18:48.962Z,129.35
2024-01-15T01:23:51.411Z,128.43
2024-01-15T01:28:53.705Z,127.70
2024-01-15T01:33:56.017Z,117.57
2024-01-15T01:38:58.324Z,113.68
2024-01-15T01:44:00.652Z,107.88
2024-01-15T01:49:07.008Z,110.28
2024-01-15T01:54:10.853Z,92.10
2024-01-15T01:59:13.808Z,109.70
2024-01-15T02:04:20.828Z,103.93
2024-01-15T02:09:24.425Z,101.20
2024-01-15T02:14:26.656Z,106.68
2024-01-15T02:19:29.027Z,101.25
2024-01-15T02:24:31.421Z,94.63
2024-01-15T02:29:33.754Z,85.35
2024-01-15T02:34:36.316Z,88.13
2024-01-15T02:39:38.693Z,85.97
2024-01-15T02:44:40.917Z,93.35
2024-01-15T02:49:43.241Z,82.05
2024-01-15T02:54:45.702Z,96.13
2024-01-15T02:59:48.029Z,83.90
2024-01-15T03:04:50.328Z,72.97
2024-01-15T03:09:52.620Z,64.18
2024-01-15T03:14:54.926Z,54.53
2024-01-15T03:19:57.292Z,56.15
2024-01-15T03:24:59.729Z,58.08
2024-01-15T03:30:02.052Z,53.78
2024-01-15T03:35:04.427Z,55.97
2024-01-15T03:40:07.616Z,52.95
2024-01-15T03:45:10.072Z,77.53
2024-01-15T03:50:12.354Z,76.75
2024-01-15T03:55:14.703Z,70.93
2024-01-15T04:00:19.104Z,63.30
2024-01-15T04:05:21.436Z,61.35
2024-01-15T04:10:23.568Z,58.60
2024-01-15T04:15:25.843Z,49.05
2024-01-15T04:20:28.106Z,47.17
2024-01-15T04:25:30.315Z,42.10
2024-01-15T04:30:32.637Z,45.17
2024-01-15T04:35:35.981Z,47.08
2024-01-15T04:40:38.181Z,45.92
2024-01-15T04:45:40.450Z,49.38
2024-01-15T04:50:42.635Z,51.80
2024-01-15T04:55:45.310Z,54.90
2024-01-15T05:00:47.784Z,53.90
2024-01-15T05:05:50.190Z,57.00
2024-01-15T05:10:52.534Z,56.67
2024-01-15T05:15:55.105Z,48.03
2024-01-15T05:20:57.449Z,72.35
2024-01-15T05:25:59.722Z,59.97
2024-01-15T05:31:02.246Z,57.03
2024-01-15T05:36:04.853Z,59.95
2024-01-15T05:41:07.462Z,58.60
2024-01-15T05:46:09.744Z,59.78
2024-01-15T05:51:12.155Z,56.83
2024-01-15T05:56:14.392Z,64.72
2024-01-15T06:01:16.735Z,75.15
2024-01-15T06:06:19.544Z,61.08
2024-01-15T06:11:21.901Z,62.28
2024-01-15T06:16:25.644Z,65.38
2024-01-15T06:21:28.137Z,52.28
2024-01-15T06:26:30.522Z,85.43
2024-01-15T06:31:32.935Z,70.85
2024-01-15T06:36:35.313Z,66.18
2024-01-15T06:41:44.982Z,66.55
2024-01-15T06:46:49.340Z,52.00
2024-01-15T06:51:51.785Z,71.53
2024-01-15T06:56:54.108Z,68.10
2024-01-15T07:01:56.821Z,69.85
2024-01-15T07:06:59.194Z,65.47
2024-01-15T07:12:01.560Z,76.07
2024-01-15T07:17:03.993Z,74.57
2024-01-15T07:22:06.456Z,82.13
2024-01-15T07:27:09.976Z,71.18
2024-01-15T07:32:12.476Z,67.40
2024-01-15T07:37:14.758Z,72.88
2024-01-15T07:42:17.151Z,70.57
2024-01-15T07:47:19.508Z,62.80
2024-01-15T07:52:21.778Z,65.30
2024-01-15T07:57:24.299Z,60.58
2024-01-15T08:02:26.599Z,47.50
2024-01-15T08:07:29.242Z,45.13
2024-01-15T08:12:31.682Z,43.42
2024-01-15T08:17:34.050Z,49.65
2024-01-15T08:22:36.412Z,54.97
2024-01-15T08:27:38.626Z,35.45
2024-01-15T08:32:44.265Z,41.83
2024-01-15T08:37:46.608Z,44.28
2024-01-15T08:42:48.996Z,43.63
2024-01-15T08:47:51.442Z,32.03
2024-01-15T08:52:54.019Z,35.90
2024-01-15T08:57:57.997Z,31.75
2024-01-15T09:03:00.495Z,41.58
2024-01-15T09:08:02.787Z,32.10
2024-01-15T09:13:06.198Z,28.05
2024-01-15T09:18:08.989Z,29.38
2024-01-15T09:23:11.376Z,27.73
2024-01-15T09:28:13.581Z,38.33
2024-01-15T09:33:15.916Z,60.90
2024-01-15T09:38:20.603Z,60.15
2024-01-15T09:43:23.560Z,49.17
2024-01-15T09:48:25.855Z,32.45
2024-01-15T09:53:28.169Z,30.52
2024-01-15T09:58:31.347Z,29.98
2024-01-15T10:03:34.708Z,26.45
2024-01-15T10:08:38.918Z,23.08
2024-01-15T10:13:43.103Z,22.92
2024-01-15T10:18:46.290Z,17.92
2024-01-15T10:23:48.592Z,21.83
2024-01-15T10:28:53.817Z,17.08
2024-01-15T10:33:56.214Z,19.73
2024-01-15T10:38:59.453Z,18.52
2024-01-15T10:44:01.717Z,19.65
2024-01-15T10:49:04.104Z,23.50
2024-01-15T10:54:06.832Z,14.77
2024-01-15T10:59:11.954Z,13.77
2024-01-15T11:04:14.552Z,19.70
2024-01-15T11:09:20.095Z,20.15
2024-01-15T11:15:05.588Z,20.17
2024-01-15T11:20:08.195Z,17.77
2024-01-15T11:25:17.666Z,17.88
2024-01-15T11:40:53.306Z,21.35
2024-01-15T11:51:13.932Z,22.33
2024-01-15T11:56:23.510Z,19.63
2024-01-15T12:01:26.707Z,23.77
2024-01-15T12:06:29.132Z,19.90
2024-01-15T12:11:33.460Z,20.15
2024-01-15T12:16:36.111Z,17.58
2024-01-15T12:21:41.302Z,18.13
2024-01-15T12:26:43.567Z,19.25
2024-01-15T12:31:49.827Z,20.55
2024-01-15T12:36:52.063Z,20.52
2024-01-15T12:41:54.579Z,20.52
2024-01-15T12:46:56.758Z,24.15
2024-01-15T12:51:59.950Z,20.13
2024-01-15T12:57:02.262Z,29.23
2024-01-15T13:02:04.594Z,26.17
2024-01-15T13:07:08.264Z,23.95
2024-01-15T13:12:10.625Z,27.95
2024-01-15T13:17:12.853Z,27.90
2024-01-15T13:22:17.463Z,27.70
2024-01-15T13:27:19.707Z,26.65
2024-01-15T13:32:31.390Z,30.35
2024-01-15T13:37:33.726Z,19.98
2024-01-15T13:42:35.940Z,25.33
2024-01-15T13:47:39.139Z,26.10
2024-01-15T13:52:43.613Z,27.45
2024-01-15T13:57:45.916Z,27.90
2024-01-15T14:02:50.901Z,27.38
2024-01-15T14:07:53.167Z,31.95
2024-01-15T14:12:55.352Z,40.63
2024-01-15T14:17:57.580Z,27.98
2024-01-15T14:22:59.932Z,25.77
2024-01-15T14:28:02.208Z,25.60
2024-01-15T14:33:04.726Z,24.73
2024-01-15T14:38:07.076Z,26.02
2024-01-15T14:43:09.762Z,21.55
2024-01-15T14:48:12.483Z,28.00
2024-01-15T14:53:14.751Z,29.10
2024-01-15T14:58:16.929Z,24.40
2024-01-15T15:03:19.521Z,24.02
2024-01-15T15:08:22.016Z,32.05
2024-01-15T15:13:34.009Z,23.17
2024-01-15T15:18:45.288Z,28.98
2024-01-15T15:23:49.052Z,29.55
2024-01-15T15:28:51.328Z,36.20
2024-01-15T15:33:54.553Z,27.70
2024-01-15T15:38:58.553Z,31.80
2024-01-15T15:44:00.988Z,33.05
2024-01-15T15:49:08.204Z,30.85
2024-01-15T15:54:10.873Z,29.52
2024-01-15T15:59:13.111Z,31.80
2024-01-15T16:04:16.805Z,35.03
2024-01-15T16:09:19.315Z,36.47
2024-01-15T16:14:21.573Z,33.58
2024-01-15T16:23:25.014Z,35.75
2024-01-15T16:24:51.246Z,32.75
2024-01-15T16:29:55.640Z,35.28
2024-01-15T16:34:59.273Z,37.05
2024-01-15T16:40:01.735Z,41.08
2024-01-15T16:45:04.238Z,40.17
2024-01-15T16:50:06.910Z,53.33
2024-01-15T16:55:09.417Z,54.50
2024-01-15T17:00:12.408Z,49.65
2024-01-15T17:05:14.718Z,53.45
2024-01-15T17:10:17.042Z,38.05
2024-01-15T17:15:19.226Z,47.80
2024-01-15T17:20:21.809Z,44.58
2024-01-15T17:25:24.040Z,43.33
2024-01-15T17:30:26.945Z,33.15
2024-01-15T17:35:29.943Z,27.45
2024-01-15T17:40:32.368Z,27.60
2024-01-15T17:45:34.506Z,29.17
2024-01-15T17:50:38.339Z,25.90
2024-01-15T17:55:40.908Z,19.77
2024-01-15T18:00:43.133Z,21.40
2024-01-15T18:05:45.721Z,27.10
2024-01-15T18:10:48.234Z,46.40
2024-01-15T18:16:00.212Z,29.65
2024-01-15T18:21:02.500Z,26.42
2024-01-15T18:26:06.356Z,30.50
2024-01-15T18:31:09.144Z,30.73
2024-01-15T18:36:12.583Z,27.33
2024-01-15T18:41:27.399Z,27.45
2024-01-15T18:46:30.070Z,34.05
2024-01-15T18:51:32.348Z,32.22
2024-01-15T18:56:39.861Z,38.30
2024-01-15T19:01:42.378Z,41.28
2024-01-15T19:06:48.380Z,60.53
2024-01-15T19:11:51.506Z,67.45
2024-01-15T19:16:54.206Z,68.35
2024-01-15T19:21:56.417Z,63.20
2024-01-15T19:26:58.799Z,67.85
2024-01-15T19:32:02.279Z,54.45
2024-01-15T19:37:05.816Z,48.78
2024-01-15T19:42:08.113Z,54.92
2024-01-15T19:47:10.531Z,53.83
2024-01-15T19:52:13.070Z,54.17
2024-01-15T19:57:15.589Z,36.30
2024-01-15T20:02:17.872Z,25.10
2024-01-15T20:07:20.182Z,20.38
2024-01-15T20:12:22.855Z,28.33
2024-01-15T20:17:26.346Z,54.63
2024-01-15T20:22:33.209Z,43.88
2024-01-15T20:27:37.379Z,19.05
2024-01-15T20:32:39.755Z,22.20
2024-01-15T20:37:42.163Z,18.35
2024-01-15T20:42:44.336Z,18.10
2024-01-15T20:47:46.766Z,20.27
2024-01-15T20:52:49.067Z,32.67
2024-01-15T20:57:51.372Z,40.40
2024-01-15T21:02:56.225Z,29.35
2024-01-15T21:07:59.737Z,25.15
2024-01-15T21:13:02.054Z,27.08
2024-01-15T21:18:07.556Z,26.13
2024-01-15T21:23:11.525Z,28.75
2024-01-15T21:28:13.763Z,26.00
2024-01-15T21:33:16.228Z,31.05
2024-01-15T21:38:18.418Z,37.05
2024-01-15T21:43:20.553Z,32.03
2024-01-15T21:48:22.817Z,24.95
2024-01-15T21:53:25.444Z,22.17
2024-01-15T21:58:27.662Z,18.83
2024-01-15T22:03:29.990Z,21.05
2024-01-15T22:08:32.406Z,25.95
2024-01-15T22:13:34.614Z,38.22
2024-01-15T22:18:36.934Z,48.13
2024-01-15T22:23:39.245Z,47.40
2024-01-15T22:28:41.600Z,44.50
2024-01-15T22:33:44.221Z,33.28
2024-01-15T22:38:46.625Z,32.33
2024-01-15T22:43:48.775Z,33.92
2024-01-15T22:48:51.006Z,35.28
2024-01-15T22:53:54.949Z,36.28
2024-01-15T22:58:57.304Z,34.72
2024-01-15T23:03:59.484Z,33.40
2024-01-15T23:09:01.677Z,29.05
2024-01-15T23:14:03.933Z,33.42
2024-01-15T23:19:06.809Z,28.73
2024-01-15T23:24:11.911Z,31.00
2024-01-15T23:29:14.450Z,29.20
2024-01-15T23:34:16.863Z,29.08
2024-01-15T23:39:19.104Z,25.95
2024-01-15T23:44:21.366Z,28.13
2024-01-15T23:49:23.703Z,30.92
2024-01-15T23:54:26.835Z,27.67
2024-01-15T23:59:29.224Z,30.77
